Brightway — 9V8755 — position and weather

sailwx.info

Track history (hours):
 
Tides and Currents Weather Stations Pressure Air Temp Water Temp Dewpoint Dewpoint Depression Visibility Wind Speed Wind Dir Waves Ship Positions

Brightway

Last reported at 2016-May-28 11:28 UTC. Time now 2016-May-28 19:47 UTC.
Position N 29°58' W 090°18'.

Length 274 m; draft 9.7 m.

Type: Tanker. MMSI: 566422000.

Date/timePositionNaut miles runAvg speedWind from/ knotsBaromVisibWave heightAir tempDewpointWater temp
2016-May-28 11:28N 29°58' W 090°18'7 7.1
2016-May-28 10:33N 29°56' W 090°10'6 5.8
2016-May-28 09:33N 29°57' W 090°04'8 8.3
2016-May-28 08:33N 29°54' W 089°55'7 6.9
2016-May-28 07:33N 29°49' W 090°00'0 0.0
2016-May-28 06:32N 29°49' W 090°00'0 0.0
2016-May-28 05:32N 29°49' W 090°00'0 0.0
2016-May-28 04:32N 29°49' W 090°00'0 0.0
2016-May-28 03:32N 29°49' W 090°00'0 0.0
2016-May-28 02:33N 29°49' W 090°00'0 0.0
2016-May-28 01:31N 29°49' W 090°00'0 0.0
2016-May-28 00:32N 29°49' W 090°00'0 0.0
2016-May-27 23:33N 29°49' W 090°00'0 0.0
2016-May-27 22:32N 29°49' W 090°00'0 0.0
2016-May-27 21:32N 29°49' W 090°00'0 0.0
2016-May-27 20:31N 29°49' W 090°00'0 0.0
2016-May-27 19:33N 29°49' W 090°00'0 0.0
2016-May-27 18:33N 29°49' W 090°00'0 0.0
2016-May-27 17:30N 29°49' W 090°00'0 0.0
2016-May-27 16:32N 29°49' W 090°00'0 0.0
2016-May-27 15:33N 29°49' W 090°00'0 0.0
2016-May-27 14:31N 29°49' W 090°00'0 0.0
2016-May-27 13:32N 29°49' W 090°00'0 0.0
2016-May-27 12:33N 29°49' W 090°00'0 0.0
2016-May-27 11:33N 29°49' W 090°00'0 0.0
2016-May-27 10:32N 29°49' W 090°00'0 0.0
2016-May-27 09:32N 29°49' W 090°00'0 0.0
2016-May-27 08:34N 29°49' W 090°00'0 0.0
2016-May-27 07:33N 29°49' W 090°00'0 0.0
2016-May-27 06:32N 29°49' W 090°00'0 0.0
2016-May-27 05:32N 29°49' W 090°00'0 0.0
2016-May-27 04:32N 29°49' W 090°00'0 0.0
2016-May-27 03:32N 29°49' W 090°00'0 0.0
2016-May-27 02:32N 29°49' W 090°00'0 0.0
2016-May-27 01:30N 29°49' W 090°00'0 0.0
2016-May-27 00:33N 29°49' W 090°00'0 0.0
2016-May-26 23:34N 29°49' W 090°00'0 0.0
2016-May-26 22:34N 29°49' W 090°00'2 2.2
2016-May-26 21:33N 29°47' W 090°01'97 5.0
2016-May-26 02:14N 29°48' W 088°10'912.7
2016-May-26 01:32N 29°55' W 088°16'  
Track history (hours):
 
Tides and Currents Weather Stations Pressure Air Temp Water Temp Dewpoint Dewpoint Depression Visibility Wind Speed Wind Dir Waves Ship Positions

Brightway

Last reported at 2016-May-28 11:28 UTC. Time now 2016-May-28 19:47 UTC.
Position N 29°58' W 090°18'.

Length 274 m; draft 9.7 m.

Type: Tanker. MMSI: 566422000.

Date/timePositionNaut miles runAvg speedWind from/ knotsBaromVisibWave heightAir tempDewpointWater temp
2016-May-28 11:28N 29°58' W 090°18'7 7.1
2016-May-28 10:33N 29°56' W 090°10'6 5.8
2016-May-28 09:33N 29°57' W 090°04'8 8.3
2016-May-28 08:33N 29°54' W 089°55'7 6.9
2016-May-28 07:33N 29°49' W 090°00'0 0.0
2016-May-28 06:32N 29°49' W 090°00'0 0.0
2016-May-28 05:32N 29°49' W 090°00'0 0.0
2016-May-28 04:32N 29°49' W 090°00'0 0.0
2016-May-28 03:32N 29°49' W 090°00'0 0.0
2016-May-28 02:33N 29°49' W 090°00'0 0.0
2016-May-28 01:31N 29°49' W 090°00'0 0.0
2016-May-28 00:32N 29°49' W 090°00'0 0.0
2016-May-27 23:33N 29°49' W 090°00'0 0.0
2016-May-27 22:32N 29°49' W 090°00'0 0.0
2016-May-27 21:32N 29°49' W 090°00'0 0.0
2016-May-27 20:31N 29°49' W 090°00'0 0.0
2016-May-27 19:33N 29°49' W 090°00'0 0.0
2016-May-27 18:33N 29°49' W 090°00'0 0.0
2016-May-27 17:30N 29°49' W 090°00'0 0.0
2016-May-27 16:32N 29°49' W 090°00'0 0.0
2016-May-27 15:33N 29°49' W 090°00'0 0.0
2016-May-27 14:31N 29°49' W 090°00'0 0.0
2016-May-27 13:32N 29°49' W 090°00'0 0.0
2016-May-27 12:33N 29°49' W 090°00'0 0.0
2016-May-27 11:33N 29°49' W 090°00'0 0.0
2016-May-27 10:32N 29°49' W 090°00'0 0.0
2016-May-27 09:32N 29°49' W 090°00'0 0.0
2016-May-27 08:34N 29°49' W 090°00'0 0.0
2016-May-27 07:33N 29°49' W 090°00'0 0.0
2016-May-27 06:32N 29°49' W 090°00'0 0.0
2016-May-27 05:32N 29°49' W 090°00'0 0.0
2016-May-27 04:32N 29°49' W 090°00'0 0.0
2016-May-27 03:32N 29°49' W 090°00'0 0.0
2016-May-27 02:32N 29°49' W 090°00'0 0.0
2016-May-27 01:30N 29°49' W 090°00'0 0.0
2016-May-27 00:33N 29°49' W 090°00'0 0.0
2016-May-26 23:34N 29°49' W 090°00'0 0.0
2016-May-26 22:34N 29°49' W 090°00'2 2.2
2016-May-26 21:33N 29°47' W 090°01'97 5.0
2016-May-26 02:14N 29°48' W 088°10'912.7
2016-May-26 01:32N 29°55' W 088°16'  

Dump ship's entire track history